Gaillard Crossroads, South Carolina
Current Conditions -  °F | °C
As of 4:58 PM on Monday 26 Jan 2015 (Local Time) from KSSC Reporting Station
Overcast Overcast  
Wind Chill: 54°   Ceiling: 10000
Heat Index: 54°   Visibility: 10mi
Dew Point: 37°   Wind: 8mph
Humidity: 52%   Direction: 300°WNW
Pressure: 29.63"   Gusts: NA
Location:  34.0134°N, 80.5102°W
Report Text: KSSC 262158Z AUTO 30007KT 10SM FEW065 OVC100 12/03 A2963 RMK AO2 SLP036 T01200025 $
Loading
Personal Weather Stations






























Interactive Weather Map New forecast layout! Learn more

10-Day Weather Forecast

Advertisements
Track Severe Weather on mobile